createdAt,value
2023-01-13T00:01:44.786Z,6.90
2023-01-13T00:04:11.943Z,6.90
2023-01-13T00:06:40.202Z,6.90
2023-01-13T00:09:07.089Z,7.00
2023-01-13T00:11:33.958Z,7.00
2023-01-13T00:14:00.822Z,6.90
2023-01-13T00:16:27.699Z,6.90
2023-01-13T00:18:54.557Z,6.90
2023-01-13T00:21:22.810Z,7.00
2023-01-13T00:23:52.350Z,7.00
2023-01-13T00:26:20.701Z,7.00
2023-01-13T00:28:47.843Z,7.00
2023-01-13T00:31:16.570Z,7.00
2023-01-13T00:33:43.840Z,7.00
2023-01-13T00:36:13.413Z,7.00
2023-01-13T00:38:40.888Z,7.00
2023-01-13T00:41:10.598Z,7.00
2023-01-13T00:43:37.974Z,7.00
2023-01-13T00:46:06.513Z,7.00
2023-01-13T00:48:34.383Z,7.00
2023-01-13T00:51:03.216Z,7.00
2023-01-13T00:53:34.121Z,7.00
2023-01-13T00:56:01.587Z,7.00
2023-01-13T00:58:32.171Z,7.00
2023-01-13T01:01:00.466Z,7.00
2023-01-13T01:03:27.457Z,7.00
2023-01-13T01:05:54.321Z,7.00
2023-01-13T01:08:21.142Z,7.00
2023-01-13T01:10:48.178Z,7.00
2023-01-13T01:13:15.394Z,7.00
2023-01-13T01:15:44.254Z,7.00
2023-01-13T01:18:11.122Z,7.00
2023-01-13T01:20:37.986Z,7.00
2023-01-13T01:23:05.013Z,7.00
2023-01-13T01:25:32.721Z,7.00
2023-01-13T01:28:00.207Z,7.00
2023-01-13T01:30:27.035Z,7.00
2023-01-13T01:32:55.245Z,7.00
2023-01-13T01:35:22.123Z,7.00
2023-01-13T01:37:48.951Z,7.00
2023-01-13T01:40:16.086Z,7.00
2023-01-13T01:42:42.956Z,7.00
2023-01-13T01:45:17.827Z,7.00
2023-01-13T01:47:47.009Z,7.00
2023-01-13T01:50:16.231Z,7.00
2023-01-13T01:52:46.175Z,7.00
2023-01-13T01:55:15.967Z,7.00
2023-01-13T01:57:49.089Z,7.00
2023-01-13T02:00:16.432Z,7.00
2023-01-13T02:02:47.563Z,7.00
2023-01-13T02:05:16.300Z,7.00
2023-01-13T02:07:46.488Z,7.00
2023-01-13T02:10:15.513Z,7.00
2023-01-13T02:12:44.232Z,7.00
2023-01-13T02:15:13.370Z,7.00
2023-01-13T02:18:05.710Z,7.00
2023-01-13T02:21:01.513Z,7.00
2023-01-13T02:24:09.004Z,7.00
2023-01-13T02:27:00.637Z,7.00
2023-01-13T02:29:50.991Z,7.00
2023-01-13T02:32:23.971Z,7.00
2023-01-13T02:34:55.722Z,7.00
2023-01-13T02:37:27.457Z,7.00
2023-01-13T02:39:59.703Z,7.10
2023-01-13T02:42:32.508Z,7.00
2023-01-13T02:45:06.740Z,7.00
2023-01-13T02:47:37.501Z,7.00
2023-01-13T02:50:08.933Z,7.00
2023-01-13T02:52:39.799Z,7.00
2023-01-13T02:55:10.524Z,7.10
2023-01-13T02:57:39.284Z,7.10
2023-01-13T03:00:11.206Z,7.00
2023-01-13T03:02:37.968Z,7.00
2023-01-13T03:05:06.510Z,7.00
2023-01-13T03:08:06.942Z,7.00
2023-01-13T03:11:01.086Z,7.10
2023-01-13T03:13:40.551Z,7.10
2023-01-13T03:16:20.577Z,7.10
2023-01-13T03:18:52.926Z,7.10
2023-01-13T03:21:24.384Z,7.10
2023-01-13T03:23:53.699Z,7.10
2023-01-13T03:26:26.448Z,7.10
2023-01-13T03:28:58.084Z,7.10
2023-01-13T03:31:30.054Z,7.10
2023-01-13T03:34:00.099Z,7.10
2023-01-13T03:36:28.862Z,7.10
2023-01-13T03:39:00.017Z,7.10
2023-01-13T03:41:31.867Z,7.10
2023-01-13T03:44:03.992Z,7.10
2023-01-13T03:46:37.901Z,7.20
2023-01-13T03:49:06.247Z,7.10
2023-01-13T03:51:35.740Z,7.10
2023-01-13T03:54:07.223Z,7.20
2023-01-13T03:56:39.076Z,7.10
2023-01-13T03:59:10.914Z,7.20
2023-01-13T04:01:45.594Z,7.10
2023-01-13T04:04:17.043Z,7.20
2023-01-13T04:06:50.659Z,7.20
2023-01-13T04:09:27.721Z,7.20
2023-01-13T04:12:00.519Z,7.20
2023-01-13T04:14:28.816Z,7.20
2023-01-13T04:16:57.274Z,7.20
2023-01-13T04:19:23.982Z,7.20
2023-01-13T04:21:50.696Z,7.20
2023-01-13T04:24:17.390Z,7.20
2023-01-13T04:26:44.109Z,7.20
2023-01-13T04:29:10.852Z,7.20
2023-01-13T04:31:37.664Z,7.20
2023-01-13T04:34:05.684Z,7.20
2023-01-13T04:36:32.409Z,7.20
2023-01-13T04:38:59.153Z,7.20
2023-01-13T04:41:25.872Z,7.20
2023-01-13T04:43:52.690Z,7.20
2023-01-13T04:46:19.726Z,7.20
2023-01-13T04:48:46.510Z,7.20
2023-01-13T04:51:14.577Z,7.20
2023-01-13T04:53:41.265Z,7.20
2023-01-13T04:56:08.267Z,7.20
2023-01-13T04:58:35.017Z,7.20
2023-01-13T05:01:01.782Z,7.30
2023-01-13T05:03:28.517Z,7.20
2023-01-13T05:05:55.230Z,7.20
2023-01-13T05:08:23.281Z,7.20
2023-01-13T05:10:50.033Z,7.30
2023-01-13T05:13:16.864Z,7.30
2023-01-13T05:15:43.691Z,7.30
2023-01-13T05:18:10.818Z,7.30
2023-01-13T05:20:37.610Z,7.30
2023-01-13T05:23:04.340Z,7.20
2023-01-13T05:25:40.507Z,7.30
2023-01-13T05:28:07.995Z,7.30
2023-01-13T05:30:38.494Z,7.30
2023-01-13T05:33:05.494Z,7.30
2023-01-13T05:35:32.238Z,7.30
2023-01-13T05:37:58.994Z,7.20
2023-01-13T05:40:25.821Z,7.30
2023-01-13T05:43:02.547Z,7.30
2023-01-13T05:45:30.621Z,7.30
2023-01-13T05:47:57.425Z,7.30
2023-01-13T05:50:24.207Z,7.30
2023-01-13T05:52:51.014Z,7.30
2023-01-13T05:55:17.888Z,7.30
2023-01-13T05:57:44.593Z,7.30
2023-01-13T06:00:13.950Z,7.30
2023-01-13T06:02:40.686Z,7.30
2023-01-13T06:05:08.225Z,7.30
2023-01-13T06:07:35.569Z,7.30
2023-01-13T06:10:02.288Z,7.30
2023-01-13T06:12:29.302Z,7.30
2023-01-13T06:14:56.059Z,7.30
2023-01-13T06:17:24.132Z,7.30
2023-01-13T06:19:50.851Z,7.30
2023-01-13T06:22:23.228Z,7.30
2023-01-13T06:24:51.347Z,7.40
2023-01-13T06:27:18.296Z,7.30
2023-01-13T06:29:45.036Z,7.30
2023-01-13T06:32:15.436Z,7.40
2023-01-13T06:34:45.567Z,7.40
2023-01-13T06:37:14.000Z,7.40
2023-01-13T06:39:41.357Z,7.40
2023-01-13T06:42:08.381Z,7.40
2023-01-13T06:44:35.198Z,7.40
2023-01-13T06:47:02.183Z,7.40
2023-01-13T06:49:28.921Z,7.40
2023-01-13T06:51:56.970Z,7.40
2023-01-13T06:54:23.674Z,7.40
2023-01-13T06:56:50.408Z,7.40
2023-01-13T06:59:17.125Z,7.40
2023-01-13T07:01:43.924Z,7.40
2023-01-13T07:04:10.731Z,7.40
2023-01-13T07:06:37.502Z,7.40
2023-01-13T07:09:06.908Z,7.40
2023-01-13T07:11:33.761Z,7.40
2023-01-13T07:14:06.849Z,7.40
2023-01-13T07:16:33.630Z,7.50
2023-01-13T07:19:00.449Z,7.40
2023-01-13T07:21:27.286Z,7.40
2023-01-13T07:23:54.071Z,7.40
2023-01-13T07:26:22.175Z,7.50
2023-01-13T07:28:48.890Z,7.50
2023-01-13T07:31:17.501Z,7.50
2023-01-13T07:33:44.683Z,7.50
2023-01-13T07:36:11.826Z,7.50
2023-01-13T07:38:38.578Z,7.50
2023-01-13T07:41:06.447Z,7.50
2023-01-13T07:43:34.525Z,7.50
2023-01-13T07:46:03.456Z,7.50
2023-01-13T07:48:31.091Z,7.50
2023-01-13T07:51:01.791Z,7.50
2023-01-13T07:53:28.488Z,7.50
2023-01-13T07:55:55.985Z,7.50
2023-01-13T07:58:22.722Z,7.50
2023-01-13T08:00:50.977Z,7.50
2023-01-13T08:03:17.756Z,7.50
2023-01-13T08:05:44.604Z,7.50
2023-01-13T08:08:11.458Z,7.60
2023-01-13T08:10:38.197Z,7.50
2023-01-13T08:13:09.403Z,7.60
2023-01-13T08:15:36.153Z,7.60
2023-01-13T08:18:04.283Z,7.60
2023-01-13T08:20:31.054Z,7.60
2023-01-13T08:22:58.299Z,7.60
2023-01-13T08:25:25.742Z,7.60
2023-01-13T08:27:52.692Z,7.60
2023-01-13T08:30:19.537Z,7.60
2023-01-13T08:32:47.437Z,7.60
2023-01-13T08:35:16.589Z,7.60
2023-01-13T08:37:43.723Z,7.60
2023-01-13T08:40:12.228Z,7.60
2023-01-13T08:42:39.075Z,7.60
2023-01-13T08:45:07.644Z,7.60
2023-01-13T08:47:34.441Z,7.60
2023-01-13T08:50:01.315Z,7.60
2023-01-13T08:52:30.766Z,7.70
2023-01-13T08:54:57.513Z,7.60
2023-01-13T08:57:24.391Z,7.60
2023-01-13T08:59:51.181Z,7.60
2023-01-13T09:02:20.158Z,7.60
2023-01-13T09:04:47.151Z,7.70
2023-01-13T09:07:14.509Z,7.70
2023-01-13T09:09:42.682Z,7.70
2023-01-13T09:12:11.662Z,7.70
2023-01-13T09:14:38.885Z,7.70
2023-01-13T09:17:06.059Z,7.70
2023-01-13T09:19:33.011Z,7.70
2023-01-13T09:21:59.926Z,7.70
2023-01-13T09:24:26.753Z,7.70
2023-01-13T09:26:54.890Z,7.70
2023-01-13T09:29:21.598Z,7.70
2023-01-13T09:31:48.486Z,7.70
2023-01-13T09:34:16.747Z,7.70
2023-01-13T09:36:43.449Z,7.70
2023-01-13T09:39:10.161Z,7.80
2023-01-13T09:41:42.357Z,7.80
2023-01-13T09:44:16.585Z,7.70
2023-01-13T09:46:47.588Z,7.80
2023-01-13T09:49:18.810Z,7.80
2023-01-13T09:51:52.194Z,7.80
2023-01-13T09:54:25.848Z,7.80
2023-01-13T09:56:52.614Z,7.80
2023-01-13T09:59:20.742Z,7.80
2023-01-13T10:01:56.435Z,7.80
2023-01-13T10:04:23.268Z,7.80
2023-01-13T10:06:53.080Z,7.90
2023-01-13T10:09:25.661Z,7.90
2023-01-13T10:11:53.513Z,7.90
2023-01-13T10:14:27.036Z,7.90
2023-01-13T10:17:04.805Z,7.90
2023-01-13T10:19:38.852Z,7.90
2023-01-13T10:22:28.138Z,7.90
2023-01-13T10:25:18.753Z,8.00
2023-01-13T10:27:47.452Z,8.00
2023-01-13T10:30:21.423Z,8.00
2023-01-13T10:32:52.599Z,8.00
2023-01-13T10:35:53.448Z,8.00
2023-01-13T10:38:22.438Z,8.00
2023-01-13T10:40:51.171Z,8.00
2023-01-13T10:43:18.111Z,8.00
2023-01-13T10:46:01.005Z,8.10
2023-01-13T10:48:39.943Z,8.10
2023-01-13T10:51:17.000Z,8.10
2023-01-13T10:53:46.675Z,8.10
2023-01-13T10:56:18.046Z,8.10
2023-01-13T10:58:45.010Z,8.10
2023-01-13T11:01:24.514Z,8.10
2023-01-13T11:03:52.564Z,8.10
2023-01-13T11:06:22.312Z,8.10
2023-01-13T11:08:51.977Z,8.10
2023-01-13T11:11:28.230Z,8.20
2023-01-13T11:13:58.080Z,8.20
2023-01-13T11:16:26.850Z,8.20
2023-01-13T11:18:58.494Z,8.20
2023-01-13T11:21:31.740Z,8.20
2023-01-13T11:24:05.449Z,8.20
2023-01-13T11:26:42.133Z,8.20
2023-01-13T11:29:15.066Z,8.20
2023-01-13T11:31:48.756Z,8.20
2023-01-13T11:34:25.209Z,8.20
2023-01-13T11:36:55.744Z,8.20
2023-01-13T11:39:27.539Z,8.20
2023-01-13T11:41:59.815Z,8.20
2023-01-13T11:44:35.532Z,8.20
2023-01-13T11:47:04.989Z,8.20
2023-01-13T11:49:33.795Z,8.20
2023-01-13T11:52:11.292Z,8.20
2023-01-13T11:55:06.699Z,8.30
2023-01-13T11:58:14.581Z,8.30
2023-01-13T12:01:01.335Z,8.30
2023-01-13T12:03:33.590Z,8.30
2023-01-13T12:06:21.951Z,8.30
2023-01-13T12:09:09.837Z,8.30
2023-01-13T12:11:46.979Z,8.30
2023-01-13T12:14:27.302Z,8.30
2023-01-13T12:16:54.155Z,8.30
2023-01-13T12:19:27.256Z,8.30
2023-01-13T12:22:20.706Z,8.30
2023-01-13T12:24:53.286Z,8.40
2023-01-13T12:27:26.882Z,8.40
2023-01-13T12:29:56.789Z,8.40
2023-01-13T12:32:29.028Z,8.40
2023-01-13T12:35:25.839Z,8.40
2023-01-13T12:38:02.638Z,8.40
2023-01-13T12:40:43.564Z,8.40
2023-01-13T12:43:16.820Z,8.40
2023-01-13T12:45:43.650Z,8.40
2023-01-13T12:48:46.616Z,8.40
2023-01-13T12:51:24.537Z,8.40
2023-01-13T12:53:51.699Z,8.40
2023-01-13T12:56:40.443Z,8.40
2023-01-13T12:59:32.376Z,8.40
2023-01-13T13:02:25.791Z,8.40
2023-01-13T13:04:54.558Z,8.40
2023-01-13T13:07:32.641Z,8.40
2023-01-13T13:10:04.214Z,8.40
2023-01-13T13:12:56.503Z,8.40
2023-01-13T13:15:24.803Z,8.40
2023-01-13T13:18:03.357Z,8.40
2023-01-13T13:20:53.650Z,8.40
2023-01-13T13:23:44.859Z,8.40
2023-01-13T13:26:29.639Z,8.40
2023-01-13T13:29:27.392Z,8.40
2023-01-13T13:32:26.991Z,8.50
2023-01-13T13:35:27.584Z,8.60
2023-01-13T13:38:03.012Z,8.60
2023-01-13T13:40:38.502Z,8.10
2023-01-13T13:43:11.269Z,7.90
2023-01-13T13:45:39.997Z,7.90
2023-01-13T13:48:20.962Z,7.70
2023-01-13T13:50:48.349Z,7.70
2023-01-13T13:53:15.649Z,7.70
2023-01-13T13:55:52.940Z,7.60
2023-01-13T13:58:19.723Z,7.60
2023-01-13T14:00:48.131Z,7.60
2023-01-13T14:03:22.981Z,7.60
2023-01-13T14:05:54.196Z,7.60
2023-01-13T14:08:21.727Z,7.60
2023-01-13T14:10:50.099Z,7.60
2023-01-13T14:13:20.589Z,7.60
2023-01-13T14:15:48.981Z,7.60
2023-01-13T14:18:19.066Z,7.50
2023-01-13T14:20:53.129Z,7.40
2023-01-13T14:23:21.723Z,7.40
2023-01-13T14:25:51.294Z,7.30
2023-01-13T14:28:22.954Z,7.40
2023-01-13T14:30:50.711Z,7.40
2023-01-13T14:33:19.985Z,7.40
2023-01-13T14:36:16.617Z,7.40
2023-01-13T14:38:45.045Z,7.40
2023-01-13T14:41:21.093Z,7.40
2023-01-13T14:43:49.170Z,7.40
2023-01-13T14:46:16.901Z,7.40
2023-01-13T14:48:46.269Z,7.40
2023-01-13T14:51:20.856Z,7.40
2023-01-13T14:53:48.765Z,7.40
2023-01-13T14:56:39.660Z,7.40
2023-01-13T14:59:46.132Z,7.40
2023-01-13T15:02:47.071Z,7.40
2023-01-13T15:05:34.938Z,7.40
2023-01-13T15:08:05.927Z,7.30
2023-01-13T15:10:35.660Z,7.30
2023-01-13T15:13:05.489Z,7.40
2023-01-13T15:15:34.961Z,7.40
2023-01-13T15:18:05.391Z,7.30
2023-01-13T15:20:32.086Z,7.40
2023-01-13T15:22:58.793Z,7.40
2023-01-13T15:25:25.559Z,7.40
2023-01-13T15:27:53.272Z,7.40
2023-01-13T15:30:23.595Z,7.40
2023-01-13T15:32:50.349Z,7.40
2023-01-13T15:35:18.715Z,7.40
2023-01-13T15:37:47.077Z,7.30
2023-01-13T15:40:16.519Z,7.30
2023-01-13T15:42:43.349Z,7.30
2023-01-13T15:45:13.004Z,7.30
2023-01-13T15:47:41.362Z,7.30
2023-01-13T15:50:14.020Z,7.30
2023-01-13T15:52:40.792Z,7.30
2023-01-13T15:55:08.202Z,7.30
2023-01-13T15:57:37.645Z,7.20
2023-01-13T16:00:08.048Z,7.20
2023-01-13T16:02:34.850Z,7.20
2023-01-13T16:05:03.160Z,7.10
2023-01-13T16:07:30.084Z,7.10
2023-01-13T16:09:56.833Z,7.10
2023-01-13T16:12:23.600Z,7.10
2023-01-13T16:14:50.312Z,7.10
2023-01-13T16:17:18.750Z,7.10
2023-01-13T16:19:46.212Z,7.10
2023-01-13T16:22:15.678Z,7.10
2023-01-13T16:24:42.983Z,7.10
2023-01-13T16:27:14.816Z,7.10
2023-01-13T16:29:41.610Z,7.10
2023-01-13T16:32:08.519Z,7.10
2023-01-13T16:34:35.288Z,7.00
2023-01-13T16:37:02.232Z,7.10
2023-01-13T16:39:30.305Z,7.10
2023-01-13T16:41:57.198Z,7.00
2023-01-13T16:44:23.926Z,7.10
2023-01-13T16:46:50.651Z,7.10
2023-01-13T16:49:17.383Z,7.00
2023-01-13T16:51:44.411Z,7.00
2023-01-13T16:54:11.315Z,7.00
2023-01-13T16:56:39.360Z,7.00
2023-01-13T16:59:07.551Z,7.00
2023-01-13T17:01:36.516Z,7.00
2023-01-13T17:04:04.083Z,7.00
2023-01-13T17:06:35.364Z,6.90
2023-01-13T17:09:03.672Z,6.90
2023-01-13T17:11:30.768Z,6.90
2023-01-13T17:13:59.675Z,6.90
2023-01-13T17:16:26.494Z,6.90
2023-01-13T17:18:53.710Z,6.90
2023-01-13T17:21:21.292Z,6.90
2023-01-13T17:23:48.307Z,6.80
2023-01-13T17:26:33.817Z,6.80
2023-01-13T17:29:02.744Z,6.80
2023-01-13T17:31:29.537Z,6.80
2023-01-13T17:33:57.472Z,6.70
2023-01-13T17:36:24.859Z,6.70
2023-01-13T17:38:51.983Z,6.70
2023-01-13T17:41:18.717Z,6.70
2023-01-13T17:43:45.461Z,6.70
2023-01-13T17:46:14.517Z,6.70
2023-01-13T17:48:41.209Z,6.70
2023-01-13T17:51:12.246Z,6.60
2023-01-13T17:53:39.074Z,6.70
2023-01-13T17:56:07.153Z,6.70
2023-01-13T17:58:33.904Z,6.70
2023-01-13T18:01:00.853Z,6.70
2023-01-13T18:03:29.001Z,6.70
2023-01-13T18:06:01.501Z,6.70
2023-01-13T18:08:28.183Z,6.80
2023-01-13T18:10:54.926Z,6.70
2023-01-13T18:13:21.644Z,6.80
2023-01-13T18:15:48.364Z,6.80
2023-01-13T18:18:15.107Z,6.70
2023-01-13T18:20:44.813Z,6.80
2023-01-13T18:23:16.471Z,6.70
2023-01-13T18:25:43.193Z,6.70
2023-01-13T18:28:09.926Z,6.70
2023-01-13T18:30:36.708Z,6.60
2023-01-13T18:33:03.541Z,6.60
2023-01-13T18:35:30.259Z,6.60
2023-01-13T18:37:58.394Z,6.70
2023-01-13T18:40:25.182Z,6.70
2023-01-13T18:42:51.959Z,6.70
2023-01-13T18:45:19.665Z,6.80
2023-01-13T18:47:46.401Z,6.80
2023-01-13T18:50:13.141Z,6.80
2023-01-13T18:52:40.487Z,6.70
2023-01-13T18:55:09.471Z,6.80
2023-01-13T18:57:36.701Z,6.80
2023-01-13T19:00:04.167Z,6.80
2023-01-13T19:02:30.880Z,6.80
2023-01-13T19:04:57.607Z,6.80
2023-01-13T19:07:24.583Z,6.80
2023-01-13T19:09:51.461Z,6.80
2023-01-13T19:12:19.514Z,6.90
2023-01-13T19:14:46.241Z,6.90
2023-01-13T19:17:14.827Z,6.90
2023-01-13T19:19:43.420Z,6.90
2023-01-13T19:22:11.348Z,6.90
2023-01-13T19:24:38.124Z,6.90
2023-01-13T19:27:04.818Z,6.90
2023-01-13T19:29:34.023Z,6.90
2023-01-13T19:32:01.921Z,6.90
2023-01-13T19:34:28.872Z,6.90
2023-01-13T19:36:55.624Z,6.90
2023-01-13T19:39:22.596Z,6.90
2023-01-13T19:41:49.536Z,6.90
2023-01-13T19:44:16.371Z,6.90
2023-01-13T19:46:44.463Z,6.90
2023-01-13T19:49:11.171Z,6.90
2023-01-13T19:51:37.964Z,6.90
2023-01-13T19:54:05.043Z,6.90
2023-01-13T19:56:31.722Z,6.90
2023-01-13T19:58:58.398Z,6.90
2023-01-13T20:01:25.226Z,6.90
2023-01-13T20:03:53.312Z,6.90
2023-01-13T20:06:20.055Z,6.90
2023-01-13T20:08:46.799Z,6.90
2023-01-13T20:11:13.591Z,6.90
2023-01-13T20:13:40.310Z,6.90
2023-01-13T20:16:08.006Z,6.90
2023-01-13T20:18:34.789Z,6.90
2023-01-13T20:21:04.887Z,6.90
2023-01-13T20:23:31.726Z,6.90
2023-01-13T20:25:59.025Z,6.90
2023-01-13T20:28:26.035Z,6.90
2023-01-13T20:30:53.026Z,6.90
2023-01-13T20:33:19.902Z,6.80
2023-01-13T20:35:55.834Z,6.80
2023-01-13T20:38:23.912Z,6.80
2023-01-13T20:40:58.520Z,6.80
2023-01-13T20:43:25.344Z,6.80
2023-01-13T20:45:52.566Z,6.80
2023-01-13T20:48:19.536Z,6.80
2023-01-13T20:50:52.445Z,6.80
2023-01-13T20:53:19.294Z,6.80
2023-01-13T20:55:47.501Z,6.80
2023-01-13T20:58:14.383Z,6.80
2023-01-13T21:00:41.460Z,6.80
2023-01-13T21:03:08.372Z,6.80
2023-01-13T21:05:35.887Z,6.80
2023-01-13T21:08:02.709Z,6.80
2023-01-13T21:10:29.450Z,6.70
2023-01-13T21:12:57.520Z,6.80
2023-01-13T21:15:25.754Z,6.80
2023-01-13T21:17:52.481Z,6.70
2023-01-13T21:20:20.356Z,6.70
2023-01-13T21:22:49.514Z,6.70
2023-01-13T21:25:17.995Z,6.70
2023-01-13T21:27:45.756Z,6.70
2023-01-13T21:30:15.284Z,6.70
2023-01-13T21:32:42.613Z,6.70
2023-01-13T21:35:12.980Z,6.70
2023-01-13T21:37:41.551Z,6.70
2023-01-13T21:40:10.602Z,6.60
2023-01-13T21:42:37.347Z,6.60
2023-01-13T21:45:04.730Z,6.60
2023-01-13T21:47:33.483Z,6.60
2023-01-13T21:50:00.326Z,6.60
2023-01-13T21:52:27.128Z,6.60
2023-01-13T21:54:53.987Z,6.60
2023-01-13T21:57:20.696Z,6.60
2023-01-13T21:59:47.409Z,6.60
2023-01-13T22:02:24.642Z,6.60
2023-01-13T22:04:53.869Z,6.60
2023-01-13T22:07:20.656Z,6.60
2023-01-13T22:09:47.394Z,6.50
2023-01-13T22:12:14.797Z,6.50
2023-01-13T22:14:41.505Z,6.50
2023-01-13T22:17:08.190Z,6.50
2023-01-13T22:19:34.912Z,6.50
2023-01-13T22:22:03.082Z,6.50
2023-01-13T22:24:29.763Z,6.50
2023-01-13T22:26:56.556Z,6.50
2023-01-13T22:29:23.263Z,6.40
2023-01-13T22:31:50.015Z,6.40
2023-01-13T22:34:16.754Z,6.40
2023-01-13T22:36:43.430Z,6.40
2023-01-13T22:39:11.486Z,6.40
2023-01-13T22:41:38.191Z,6.40
2023-01-13T22:44:05.232Z,6.40
2023-01-13T22:46:31.947Z,6.40
2023-01-13T22:48:58.664Z,6.40
2023-01-13T22:51:25.394Z,6.40
2023-01-13T22:53:52.299Z,6.40
2023-01-13T22:56:22.395Z,6.40
2023-01-13T22:58:53.251Z,6.40
2023-01-13T23:01:19.974Z,6.40
2023-01-13T23:03:47.392Z,6.40
2023-01-13T23:06:14.454Z,6.40
2023-01-13T23:08:41.564Z,6.40
2023-01-13T23:11:10.721Z,6.40
2023-01-13T23:13:39.654Z,6.40
2023-01-13T23:16:08.364Z,6.40
2023-01-13T23:18:35.106Z,6.40
2023-01-13T23:21:02.879Z,6.40
2023-01-13T23:23:29.662Z,6.40
2023-01-13T23:25:56.389Z,6.40
2023-01-13T23:28:23.232Z,6.40
2023-01-13T23:30:51.726Z,6.40
2023-01-13T23:33:18.984Z,6.40
2023-01-13T23:35:55.225Z,6.40
2023-01-13T23:38:21.910Z,6.40
2023-01-13T23:40:48.599Z,6.40
2023-01-13T23:43:15.572Z,6.40
2023-01-13T23:45:42.263Z,6.40
2023-01-13T23:48:10.696Z,6.40
2023-01-13T23:50:37.416Z,6.40
2023-01-13T23:53:04.127Z,6.40
2023-01-13T23:55:30.867Z,6.40
2023-01-13T23:57:57.753Z,6.40
